sensor_id;sensor_type;location;lat;lon;timestamp;P1;P2;P0
68341;PMS7003;55668;52.310;21.066;2023-07-28T00:42:44;7;7;
68341;PMS7003;55668;52.310;21.066;2023-07-28T01:27:48;7;7;
68341;PMS7003;55668;52.310;21.066;2023-07-28T01:46:38;8;8;
68341;PMS7003;55668;52.310;21.066;2023-07-28T02:44:32;9;9;
68341;PMS7003;55668;52.310;21.066;2023-07-28T03:15:29;9;9;
68341;PMS7003;55668;52.310;21.066;2023-07-28T03:47:34;8;8;
68341;PMS7003;55668;52.310;21.066;2023-07-28T04:17:58;9;9;
68341;PMS7003;55668;52.310;21.066;2023-07-28T04:33:29;8;8;
68341;PMS7003;55668;52.310;21.066;2023-07-28T04:49:03;8;8;
68341;PMS7003;55668;52.310;21.066;2023-07-28T05:02:56;8;8;
68341;PMS7003;55668;52.310;21.066;2023-07-28T05:18:03;10;10;
68341;PMS7003;55668;52.310;21.066;2023-07-28T05:33:32;7;7;
68341;PMS7003;55668;52.310;21.066;2023-07-28T05:48:22;9;9;
68341;PMS7003;55668;52.310;21.066;2023-07-28T06:03:46;8;8;
68341;PMS7003;55668;52.310;21.066;2023-07-28T06:20:25;7;7;
68341;PMS7003;55668;52.310;21.066;2023-07-28T06:35:47;8;8;
68341;PMS7003;55668;52.310;21.066;2023-07-28T06:51:01;9;7;
68341;PMS7003;55668;52.310;21.066;2023-07-28T07:06:19;8;8;
68341;PMS7003;55668;52.310;21.066;2023-07-28T07:37:11;7;7;
68341;PMS7003;55668;52.310;21.066;2023-07-28T07:52:52;6;6;
68341;PMS7003;55668;52.310;21.066;2023-07-28T08:08:02;7;7;
68341;PMS7003;55668;52.310;21.066;2023-07-28T08:38:33;6;6;
68341;PMS7003;55668;52.310;21.066;2023-07-28T08:53:14;5;5;
68341;PMS7003;55668;52.310;21.066;2023-07-28T09:09:18;7;7;
68341;PMS7003;55668;52.310;21.066;2023-07-28T09:23:27;7;7;
68341;PMS7003;55668;52.310;21.066;2023-07-28T09:38:38;5;5;
68341;PMS7003;55668;52.310;21.066;2023-07-28T09:54:39;6;6;
68341;PMS7003;55668;52.310;21.066;2023-07-28T10:09:09;7;7;
68341;PMS7003;55668;52.310;21.066;2023-07-28T10:25:22;5;5;
68341;PMS7003;55668;52.310;21.066;2023-07-28T10:55:21;7;7;
68341;PMS7003;55668;52.310;21.066;2023-07-28T11:13:39;6;6;
68341;PMS7003;55668;52.310;21.066;2023-07-28T11:27:27;5;5;
68341;PMS7003;55668;52.310;21.066;2023-07-28T11:44:55;6;6;
68341;PMS7003;55668;52.310;21.066;2023-07-28T11:57:22;5;5;
68341;PMS7003;55668;52.310;21.066;2023-07-28T12:11:57;5;5;
68341;PMS7003;55668;52.310;21.066;2023-07-28T12:27:52;5;5;
68341;PMS7003;55668;52.310;21.066;2023-07-28T12:42:33;5;5;
68341;PMS7003;55668;52.310;21.066;2023-07-28T12:59:47;5;5;
68341;PMS7003;55668;52.310;21.066;2023-07-28T13:15:43;4;4;
68341;PMS7003;55668;52.310;21.066;2023-07-28T13:29:07;3;3;
68341;PMS7003;55668;52.310;21.066;2023-07-28T13:48:02;4;4;
68341;PMS7003;55668;52.310;21.066;2023-07-28T14:00:16;4;4;
68341;PMS7003;55668;52.310;21.066;2023-07-28T14:15:17;3;3;
68341;PMS7003;55668;52.310;21.066;2023-07-28T15:00:43;3;3;
68341;PMS7003;55668;52.310;21.066;2023-07-28T15:16:33;2;2;
68341;PMS7003;55668;52.310;21.066;2023-07-28T15:32:45;2;2;
68341;PMS7003;55668;52.310;21.066;2023-07-28T15:46:40;3;3;
68341;PMS7003;55668;52.310;21.066;2023-07-28T16:02:55;2;2;
68341;PMS7003;55668;52.310;21.066;2023-07-28T16:18:50;3;3;
68341;PMS7003;55668;52.310;21.066;2023-07-28T17:10:38;3;3;
68341;PMS7003;55668;52.310;21.066;2023-07-28T17:20:29;2;2;
68341;PMS7003;55668;52.310;21.066;2023-07-28T17:55:12;3;3;
68341;PMS7003;55668;52.310;21.066;2023-07-28T18:05:14;2;2;
68341;PMS7003;55668;52.310;21.066;2023-07-28T18:25:15;2;2;
68341;PMS7003;55668;52.310;21.066;2023-07-28T18:35:43;2;2;
68341;PMS7003;55668;52.310;21.066;2023-07-28T18:52:18;1;1;
68341;PMS7003;55668;52.310;21.066;2023-07-28T19:07:11;1;1;
68341;PMS7003;55668;52.310;21.066;2023-07-28T19:22:49;2;2;
68341;PMS7003;55668;52.310;21.066;2023-07-28T19:38:40;1;1;
68341;PMS7003;55668;52.310;21.066;2023-07-28T19:53:11;1;1;
68341;PMS7003;55668;52.310;21.066;2023-07-28T20:22:57;2;2;
68341;PMS7003;55668;52.310;21.066;2023-07-28T20:39:16;2;2;
68341;PMS7003;55668;52.310;21.066;2023-07-28T20:54:16;1;1;
68341;PMS7003;55668;52.310;21.066;2023-07-28T21:11:26;2;1;
68341;PMS7003;55668;52.310;21.066;2023-07-28T21:26:03;1;1;
68341;PMS7003;55668;52.310;21.066;2023-07-28T21:40:19;0;0;
68341;PMS7003;55668;52.310;21.066;2023-07-28T21:56:59;2;2;
68341;PMS7003;55668;52.310;21.066;2023-07-28T22:11:57;2;2;
68341;PMS7003;55668;52.310;21.066;2023-07-28T22:27:19;2;2;
68341;PMS7003;55668;52.310;21.066;2023-07-28T22:41:00;2;2;
68341;PMS7003;55668;52.310;21.066;2023-07-28T23:01:35;0;0;
68341;PMS7003;55668;52.310;21.066;2023-07-28T23:44:22;2;2;
